Terminal Aerodrome Forecast
Issued by NWS

Home | Current Version | Previous Version | Text Only | Print | Product List | Glossary On
Versions: 1 2 3 4 5 6 7 8 9 10 11 12
263
FTUS45 KPSR 081720
TAFIPL
TAF
KIPL 081720Z 0818/0918 VRB03KT P6SM FEW250
     FM082100 06003KT P6SM FEW250
     FM090500 27003KT P6SM FEW250=

USA.gov is the U.S. government's official web portal to all federal, state and local government web resources and services.